sensor_id;sensor_type;location;lat;lon;timestamp;P1;durP1;ratioP1;P2;durP2;ratioP2
75139;SDS011;63714;55.812;37.658;2023-05-10T00:00:08;18.55;;;8.80;;
75139;SDS011;63714;55.812;37.658;2023-05-10T00:02:34;16.45;;;9.52;;
75139;SDS011;63714;55.812;37.658;2023-05-10T00:05:00;19.38;;;8.68;;
75139;SDS011;63714;55.812;37.658;2023-05-10T00:07:26;17.95;;;8.25;;
75139;SDS011;63714;55.812;37.658;2023-05-10T00:09:51;19.50;;;9.35;;
75139;SDS011;63714;55.812;37.658;2023-05-10T00:12:17;14.93;;;9.48;;
75139;SDS011;63714;55.812;37.658;2023-05-10T00:14:43;15.00;;;9.40;;
75139;SDS011;63714;55.812;37.658;2023-05-10T00:17:08;15.98;;;9.27;;
75139;SDS011;63714;55.812;37.658;2023-05-10T00:19:34;17.40;;;9.80;;
75139;SDS011;63714;55.812;37.658;2023-05-10T00:21:59;15.95;;;9.45;;
75139;SDS011;63714;55.812;37.658;2023-05-10T00:24:25;17.13;;;9.85;;
75139;SDS011;63714;55.812;37.658;2023-05-10T00:26:51;19.63;;;9.85;;
75139;SDS011;63714;55.812;37.658;2023-05-10T00:29:16;17.90;;;10.30;;
75139;SDS011;63714;55.812;37.658;2023-05-10T00:31:42;20.98;;;9.85;;
75139;SDS011;63714;55.812;37.658;2023-05-10T00:34:07;19.42;;;9.95;;
75139;SDS011;63714;55.812;37.658;2023-05-10T00:36:33;15.95;;;9.32;;
75139;SDS011;63714;55.812;37.658;2023-05-10T00:38:59;16.25;;;9.50;;
75139;SDS011;63714;55.812;37.658;2023-05-10T00:41:25;15.52;;;9.20;;
75139;SDS011;63714;55.812;37.658;2023-05-10T00:43:50;19.15;;;9.68;;
75139;SDS011;63714;55.812;37.658;2023-05-10T00:46:16;18.00;;;9.85;;
75139;SDS011;63714;55.812;37.658;2023-05-10T00:48:42;16.90;;;9.80;;
75139;SDS011;63714;55.812;37.658;2023-05-10T00:51:08;19.50;;;10.05;;
75139;SDS011;63714;55.812;37.658;2023-05-10T00:53:34;16.73;;;9.07;;
75139;SDS011;63714;55.812;37.658;2023-05-10T00:56:00;19.50;;;9.93;;
75139;SDS011;63714;55.812;37.658;2023-05-10T00:58:28;15.50;;;9.73;;
75139;SDS011;63714;55.812;37.658;2023-05-10T01:00:55;18.90;;;10.02;;
75139;SDS011;63714;55.812;37.658;2023-05-10T01:03:25;19.20;;;9.52;;
75139;SDS011;63714;55.812;37.658;2023-05-10T01:05:50;17.67;;;10.23;;
75139;SDS011;63714;55.812;37.658;2023-05-10T01:08:16;22.02;;;9.80;;
75139;SDS011;63714;55.812;37.658;2023-05-10T01:10:42;19.73;;;9.30;;
75139;SDS011;63714;55.812;37.658;2023-05-10T01:13:09;18.52;;;10.70;;
75139;SDS011;63714;55.812;37.658;2023-05-10T01:15:35;17.23;;;9.70;;
75139;SDS011;63714;55.812;37.658;2023-05-10T01:18:02;16.45;;;10.10;;
75139;SDS011;63714;55.812;37.658;2023-05-10T01:20:30;16.10;;;9.75;;
75139;SDS011;63714;55.812;37.658;2023-05-10T01:25:42;17.17;;;9.52;;
75139;SDS011;63714;55.812;37.658;2023-05-10T01:31:28;17.77;;;10.13;;
75139;SDS011;63714;55.812;37.658;2023-05-10T01:34:18;16.92;;;9.07;;
75139;SDS011;63714;55.812;37.658;2023-05-10T01:37:04;21.75;;;8.70;;
75139;SDS011;63714;55.812;37.658;2023-05-10T01:42:29;16.52;;;8.95;;
75139;SDS011;63714;55.812;37.658;2023-05-10T01:47:39;17.88;;;10.50;;
75139;SDS011;63714;55.812;37.658;2023-05-10T01:50:10;15.50;;;8.73;;
75139;SDS011;63714;55.812;37.658;2023-05-10T01:52:42;14.65;;;8.88;;
75139;SDS011;63714;55.812;37.658;2023-05-10T01:55:11;20.23;;;9.45;;
75139;SDS011;63714;55.812;37.658;2023-05-10T01:57:42;20.02;;;9.00;;
75139;SDS011;63714;55.812;37.658;2023-05-10T02:00:09;18.80;;;8.57;;
75139;SDS011;63714;55.812;37.658;2023-05-10T02:02:37;18.23;;;8.90;;
75139;SDS011;63714;55.812;37.658;2023-05-10T02:05:05;18.35;;;8.88;;
75139;SDS011;63714;55.812;37.658;2023-05-10T02:07:32;19.42;;;8.40;;
75139;SDS011;63714;55.812;37.658;2023-05-10T02:10:00;15.57;;;8.20;;
75139;SDS011;63714;55.812;37.658;2023-05-10T02:14:54;15.63;;;8.13;;
75139;SDS011;63714;55.812;37.658;2023-05-10T02:17:21;16.20;;;7.95;;
75139;SDS011;63714;55.812;37.658;2023-05-10T02:19:48;16.02;;;7.63;;
75139;SDS011;63714;55.812;37.658;2023-05-10T02:22:16;16.40;;;8.18;;
75139;SDS011;63714;55.812;37.658;2023-05-10T02:24:43;12.98;;;6.95;;
75139;SDS011;63714;55.812;37.658;2023-05-10T02:27:10;15.68;;;7.60;;
75139;SDS011;63714;55.812;37.658;2023-05-10T02:29:37;14.32;;;7.13;;
75139;SDS011;63714;55.812;37.658;2023-05-10T02:32:04;14.48;;;7.15;;
75139;SDS011;63714;55.812;37.658;2023-05-10T02:34:31;17.00;;;7.10;;
75139;SDS011;63714;55.812;37.658;2023-05-10T02:36:57;14.30;;;7.45;;
75139;SDS011;63714;55.812;37.658;2023-05-10T02:39:25;15.73;;;8.00;;
75139;SDS011;63714;55.812;37.658;2023-05-10T02:41:53;14.27;;;7.32;;
75139;SDS011;63714;55.812;37.658;2023-05-10T02:44:20;11.82;;;6.68;;
75139;SDS011;63714;55.812;37.658;2023-05-10T02:46:48;12.98;;;7.25;;
75139;SDS011;63714;55.812;37.658;2023-05-10T02:49:14;14.05;;;7.55;;
75139;SDS011;63714;55.812;37.658;2023-05-10T02:51:47;15.20;;;6.90;;
75139;SDS011;63714;55.812;37.658;2023-05-10T02:54:20;14.15;;;6.88;;
75139;SDS011;63714;55.812;37.658;2023-05-10T02:56:54;14.75;;;7.78;;
75139;SDS011;63714;55.812;37.658;2023-05-10T02:59:26;16.20;;;7.78;;
75139;SDS011;63714;55.812;37.658;2023-05-10T03:01:52;11.93;;;6.80;;
75139;SDS011;63714;55.812;37.658;2023-05-10T03:04:17;11.00;;;6.68;;
75139;SDS011;63714;55.812;37.658;2023-05-10T03:06:43;15.57;;;6.32;;
75139;SDS011;63714;55.812;37.658;2023-05-10T03:09:09;14.27;;;7.30;;
75139;SDS011;63714;55.812;37.658;2023-05-10T03:14:23;13.07;;;6.60;;
75139;SDS011;63714;55.812;37.658;2023-05-10T03:16:58;11.85;;;5.65;;
75139;SDS011;63714;55.812;37.658;2023-05-10T03:19:35;13.13;;;5.78;;
75139;SDS011;63714;55.812;37.658;2023-05-10T03:22:10;13.23;;;6.05;;
75139;SDS011;63714;55.812;37.658;2023-05-10T03:24:39;11.57;;;6.05;;
75139;SDS011;63714;55.812;37.658;2023-05-10T03:31:58;17.70;;;6.07;;
75139;SDS011;63714;55.812;37.658;2023-05-10T03:34:25;18.10;;;5.50;;
75139;SDS011;63714;55.812;37.658;2023-05-10T03:36:51;11.60;;;4.80;;
75139;SDS011;63714;55.812;37.658;2023-05-10T03:39:17;13.27;;;5.88;;
75139;SDS011;63714;55.812;37.658;2023-05-10T03:41:43;9.38;;;4.97;;
75139;SDS011;63714;55.812;37.658;2023-05-10T03:44:08;8.02;;;4.32;;
75139;SDS011;63714;55.812;37.658;2023-05-10T03:46:34;12.32;;;5.10;;
75139;SDS011;63714;55.812;37.658;2023-05-10T03:48:59;10.55;;;5.28;;
75139;SDS011;63714;55.812;37.658;2023-05-10T03:51:25;12.25;;;5.10;;
75139;SDS011;63714;55.812;37.658;2023-05-10T03:53:53;13.90;;;5.40;;
75139;SDS011;63714;55.812;37.658;2023-05-10T03:56:20;13.02;;;4.97;;
75139;SDS011;63714;55.812;37.658;2023-05-10T03:58:46;9.35;;;4.57;;
75139;SDS011;63714;55.812;37.658;2023-05-10T04:04:09;8.95;;;4.05;;
75139;SDS011;63714;55.812;37.658;2023-05-10T04:06:35;8.68;;;4.85;;
75139;SDS011;63714;55.812;37.658;2023-05-10T04:09:01;8.68;;;4.45;;
75139;SDS011;63714;55.812;37.658;2023-05-10T04:11:29;12.10;;;5.03;;
75139;SDS011;63714;55.812;37.658;2023-05-10T04:13:55;9.32;;;4.47;;
75139;SDS011;63714;55.812;37.658;2023-05-10T04:16:21;13.10;;;4.68;;
75139;SDS011;63714;55.812;37.658;2023-05-10T04:18:46;10.88;;;4.05;;
75139;SDS011;63714;55.812;37.658;2023-05-10T04:21:13;9.68;;;3.80;;
75139;SDS011;63714;55.812;37.658;2023-05-10T04:23:39;12.50;;;4.10;;
75139;SDS011;63714;55.812;37.658;2023-05-10T04:26:05;6.30;;;3.53;;
75139;SDS011;63714;55.812;37.658;2023-05-10T04:28:31;5.25;;;3.80;;
75139;SDS011;63714;55.812;37.658;2023-05-10T04:31:03;7.60;;;3.85;;
75139;SDS011;63714;55.812;37.658;2023-05-10T04:33:30;11.30;;;3.55;;
75139;SDS011;63714;55.812;37.658;2023-05-10T04:35:57;9.32;;;3.53;;
75139;SDS011;63714;55.812;37.658;2023-05-10T04:38:22;7.07;;;3.13;;
75139;SDS011;63714;55.812;37.658;2023-05-10T04:40:48;8.63;;;3.70;;
75139;SDS011;63714;55.812;37.658;2023-05-10T04:43:14;9.77;;;3.35;;
75139;SDS011;63714;55.812;37.658;2023-05-10T04:45:39;30.75;;;4.65;;
75139;SDS011;63714;55.812;37.658;2023-05-10T04:48:05;11.90;;;3.95;;
75139;SDS011;63714;55.812;37.658;2023-05-10T04:50:31;78.07;;;9.52;;
75139;SDS011;63714;55.812;37.658;2023-05-10T04:52:57;12.50;;;3.58;;
75139;SDS011;63714;55.812;37.658;2023-05-10T04:55:22;14.85;;;3.80;;
75139;SDS011;63714;55.812;37.658;2023-05-10T04:57:48;10.32;;;3.60;;
75139;SDS011;63714;55.812;37.658;2023-05-10T05:00:14;14.23;;;4.50;;
75139;SDS011;63714;55.812;37.658;2023-05-10T05:02:43;11.10;;;3.33;;
75139;SDS011;63714;55.812;37.658;2023-05-10T05:05:13;9.95;;;3.60;;
75139;SDS011;63714;55.812;37.658;2023-05-10T05:07:38;6.57;;;3.05;;
75139;SDS011;63714;55.812;37.658;2023-05-10T05:10:05;13.05;;;4.07;;
75139;SDS011;63714;55.812;37.658;2023-05-10T05:14:57;7.50;;;3.22;;
75139;SDS011;63714;55.812;37.658;2023-05-10T05:17:23;6.38;;;3.20;;
75139;SDS011;63714;55.812;37.658;2023-05-10T05:19:49;7.47;;;3.20;;
75139;SDS011;63714;55.812;37.658;2023-05-10T05:22:14;6.70;;;3.30;;
75139;SDS011;63714;55.812;37.658;2023-05-10T05:24:40;6.88;;;3.80;;
75139;SDS011;63714;55.812;37.658;2023-05-10T05:27:05;10.23;;;3.38;;
75139;SDS011;63714;55.812;37.658;2023-05-10T05:29:31;9.77;;;3.60;;
75139;SDS011;63714;55.812;37.658;2023-05-10T05:31:57;10.43;;;3.25;;
75139;SDS011;63714;55.812;37.658;2023-05-10T05:34:23;10.27;;;3.45;;
75139;SDS011;63714;55.812;37.658;2023-05-10T05:36:49;12.95;;;3.65;;
75139;SDS011;63714;55.812;37.658;2023-05-10T05:39:15;11.00;;;4.05;;
75139;SDS011;63714;55.812;37.658;2023-05-10T05:41:40;12.20;;;3.45;;
75139;SDS011;63714;55.812;37.658;2023-05-10T05:44:06;12.30;;;3.33;;
75139;SDS011;63714;55.812;37.658;2023-05-10T05:46:32;11.73;;;3.13;;
75139;SDS011;63714;55.812;37.658;2023-05-10T05:48:57;5.75;;;3.22;;
75139;SDS011;63714;55.812;37.658;2023-05-10T05:51:23;9.65;;;2.75;;
75139;SDS011;63714;55.812;37.658;2023-05-10T05:53:48;9.60;;;3.00;;
75139;SDS011;63714;55.812;37.658;2023-05-10T05:56:14;9.05;;;2.95;;
75139;SDS011;63714;55.812;37.658;2023-05-10T05:58:39;7.10;;;2.63;;
75139;SDS011;63714;55.812;37.658;2023-05-10T06:01:05;10.25;;;2.45;;
75139;SDS011;63714;55.812;37.658;2023-05-10T06:03:30;3.58;;;2.33;;
75139;SDS011;63714;55.812;37.658;2023-05-10T06:05:56;14.38;;;2.97;;
75139;SDS011;63714;55.812;37.658;2023-05-10T06:08:22;8.77;;;2.63;;
75139;SDS011;63714;55.812;37.658;2023-05-10T06:10:47;6.50;;;2.60;;
75139;SDS011;63714;55.812;37.658;2023-05-10T06:13:13;14.18;;;3.25;;
75139;SDS011;63714;55.812;37.658;2023-05-10T06:15:39;4.70;;;2.60;;
75139;SDS011;63714;55.812;37.658;2023-05-10T06:18:04;7.13;;;2.92;;
75139;SDS011;63714;55.812;37.658;2023-05-10T06:20:31;8.90;;;3.28;;
75139;SDS011;63714;55.812;37.658;2023-05-10T06:22:57;10.50;;;3.00;;
75139;SDS011;63714;55.812;37.658;2023-05-10T06:25:23;14.52;;;3.85;;
75139;SDS011;63714;55.812;37.658;2023-05-10T06:27:49;7.00;;;2.78;;
75139;SDS011;63714;55.812;37.658;2023-05-10T06:30:14;11.68;;;3.10;;
75139;SDS011;63714;55.812;37.658;2023-05-10T06:32:40;12.50;;;3.00;;
75139;SDS011;63714;55.812;37.658;2023-05-10T06:35:09;8.45;;;2.78;;
75139;SDS011;63714;55.812;37.658;2023-05-10T06:37:34;9.10;;;3.30;;
75139;SDS011;63714;55.812;37.658;2023-05-10T06:40:00;7.78;;;2.75;;
75139;SDS011;63714;55.812;37.658;2023-05-10T06:42:27;7.30;;;3.25;;
75139;SDS011;63714;55.812;37.658;2023-05-10T06:44:53;10.57;;;2.85;;
75139;SDS011;63714;55.812;37.658;2023-05-10T06:47:18;10.95;;;3.10;;
75139;SDS011;63714;55.812;37.658;2023-05-10T06:49:44;6.88;;;2.97;;
75139;SDS011;63714;55.812;37.658;2023-05-10T06:52:10;11.95;;;4.40;;
75139;SDS011;63714;55.812;37.658;2023-05-10T06:54:35;7.47;;;2.55;;
75139;SDS011;63714;55.812;37.658;2023-05-10T06:57:01;8.02;;;2.75;;
75139;SDS011;63714;55.812;37.658;2023-05-10T06:59:30;6.90;;;2.75;;
75139;SDS011;63714;55.812;37.658;2023-05-10T07:01:56;9.70;;;2.80;;
75139;SDS011;63714;55.812;37.658;2023-05-10T07:04:21;7.35;;;2.45;;
75139;SDS011;63714;55.812;37.658;2023-05-10T07:06:47;7.13;;;2.40;;
75139;SDS011;63714;55.812;37.658;2023-05-10T07:09:14;8.10;;;2.38;;
75139;SDS011;63714;55.812;37.658;2023-05-10T07:11:40;4.47;;;1.75;;
75139;SDS011;63714;55.812;37.658;2023-05-10T07:14:06;5.18;;;2.05;;
75139;SDS011;63714;55.812;37.658;2023-05-10T07:16:32;7.55;;;2.53;;
75139;SDS011;63714;55.812;37.658;2023-05-10T07:18:57;6.57;;;2.00;;
75139;SDS011;63714;55.812;37.658;2023-05-10T07:21:23;7.97;;;2.53;;
75139;SDS011;63714;55.812;37.658;2023-05-10T07:23:49;6.45;;;2.30;;
75139;SDS011;63714;55.812;37.658;2023-05-10T07:26:15;11.70;;;3.38;;
75139;SDS011;63714;55.812;37.658;2023-05-10T07:28:42;7.13;;;2.70;;
75139;SDS011;63714;55.812;37.658;2023-05-10T07:31:07;3.88;;;2.42;;
75139;SDS011;63714;55.812;37.658;2023-05-10T07:33:33;7.97;;;2.55;;
75139;SDS011;63714;55.812;37.658;2023-05-10T07:35:58;9.77;;;3.15;;
75139;SDS011;63714;55.812;37.658;2023-05-10T07:38:24;8.32;;;2.90;;
75139;SDS011;63714;55.812;37.658;2023-05-10T07:40:50;34.15;;;4.68;;
75139;SDS011;63714;55.812;37.658;2023-05-10T07:43:15;7.40;;;2.92;;
75139;SDS011;63714;55.812;37.658;2023-05-10T07:45:41;8.30;;;2.90;;
75139;SDS011;63714;55.812;37.658;2023-05-10T07:48:06;11.38;;;3.22;;
75139;SDS011;63714;55.812;37.658;2023-05-10T07:50:32;10.50;;;2.85;;
75139;SDS011;63714;55.812;37.658;2023-05-10T07:52:58;7.75;;;2.80;;
75139;SDS011;63714;55.812;37.658;2023-05-10T07:55:23;6.60;;;2.90;;
75139;SDS011;63714;55.812;37.658;2023-05-10T07:57:49;8.60;;;2.50;;
75139;SDS011;63714;55.812;37.658;2023-05-10T08:00:17;9.65;;;3.00;;
75139;SDS011;63714;55.812;37.658;2023-05-10T08:02:44;8.73;;;3.53;;
75139;SDS011;63714;55.812;37.658;2023-05-10T08:05:10;8.63;;;3.22;;
75139;SDS011;63714;55.812;37.658;2023-05-10T08:07:36;9.15;;;2.85;;
75139;SDS011;63714;55.812;37.658;2023-05-10T08:10:02;6.50;;;3.22;;
75139;SDS011;63714;55.812;37.658;2023-05-10T08:12:30;7.60;;;2.90;;
75139;SDS011;63714;55.812;37.658;2023-05-10T08:14:56;11.23;;;2.88;;
75139;SDS011;63714;55.812;37.658;2023-05-10T08:17:22;5.43;;;2.92;;
75139;SDS011;63714;55.812;37.658;2023-05-10T08:19:47;6.72;;;2.65;;
75139;SDS011;63714;55.812;37.658;2023-05-10T08:22:13;3.75;;;1.92;;
75139;SDS011;63714;55.812;37.658;2023-05-10T08:24:39;10.27;;;4.05;;
75139;SDS011;63714;55.812;37.658;2023-05-10T08:27:07;5.32;;;2.45;;
75139;SDS011;63714;55.812;37.658;2023-05-10T08:29:33;5.07;;;2.72;;
75139;SDS011;63714;55.812;37.658;2023-05-10T08:31:59;6.68;;;3.13;;
75139;SDS011;63714;55.812;37.658;2023-05-10T08:36:51;5.00;;;2.53;;
75139;SDS011;63714;55.812;37.658;2023-05-10T08:39:17;4.13;;;2.00;;
75139;SDS011;63714;55.812;37.658;2023-05-10T08:41:43;1.92;;;1.75;;
75139;SDS011;63714;55.812;37.658;2023-05-10T08:44:10;3.08;;;2.17;;
75139;SDS011;63714;55.812;37.658;2023-05-10T08:46:36;3.28;;;2.03;;
75139;SDS011;63714;55.812;37.658;2023-05-10T08:49:06;8.52;;;3.10;;
75139;SDS011;63714;55.812;37.658;2023-05-10T08:51:36;4.32;;;2.78;;
75139;SDS011;63714;55.812;37.658;2023-05-10T08:54:05;4.70;;;2.40;;
75139;SDS011;63714;55.812;37.658;2023-05-10T08:56:31;3.03;;;2.55;;
75139;SDS011;63714;55.812;37.658;2023-05-10T08:58:57;2.78;;;2.15;;
75139;SDS011;63714;55.812;37.658;2023-05-10T09:01:23;4.72;;;2.13;;
75139;SDS011;63714;55.812;37.658;2023-05-10T09:03:50;5.28;;;2.03;;
75139;SDS011;63714;55.812;37.658;2023-05-10T09:06:16;4.13;;;2.70;;
75139;SDS011;63714;55.812;37.658;2023-05-10T09:08:42;5.03;;;2.47;;
75139;SDS011;63714;55.812;37.658;2023-05-10T09:11:08;3.33;;;2.53;;
75139;SDS011;63714;55.812;37.658;2023-05-10T09:16:01;4.82;;;1.83;;
75139;SDS011;63714;55.812;37.658;2023-05-10T09:20:53;9.25;;;2.70;;
75139;SDS011;63714;55.812;37.658;2023-05-10T09:23:19;6.80;;;2.15;;
75139;SDS011;63714;55.812;37.658;2023-05-10T09:25:45;4.25;;;1.73;;
75139;SDS011;63714;55.812;37.658;2023-05-10T09:28:11;5.05;;;2.13;;
75139;SDS011;63714;55.812;37.658;2023-05-10T09:30:37;6.95;;;2.00;;
75139;SDS011;63714;55.812;37.658;2023-05-10T09:33:02;3.42;;;1.90;;
75139;SDS011;63714;55.812;37.658;2023-05-10T09:35:29;2.78;;;1.60;;
75139;SDS011;63714;55.812;37.658;2023-05-10T09:38:00;2.38;;;1.63;;
75139;SDS011;63714;55.812;37.658;2023-05-10T09:40:28;5.15;;;1.75;;
75139;SDS011;63714;55.812;37.658;2023-05-10T09:45:25;5.65;;;2.20;;
75139;SDS011;63714;55.812;37.658;2023-05-10T09:47:55;5.45;;;2.08;;
75139;SDS011;63714;55.812;37.658;2023-05-10T09:50:22;3.13;;;1.77;;
75139;SDS011;63714;55.812;37.658;2023-05-10T09:52:55;5.47;;;2.15;;
75139;SDS011;63714;55.812;37.658;2023-05-10T09:58:02;4.53;;;1.50;;
75139;SDS011;63714;55.812;37.658;2023-05-10T10:00:34;3.00;;;1.67;;
75139;SDS011;63714;55.812;37.658;2023-05-10T10:03:01;4.30;;;1.85;;
75139;SDS011;63714;55.812;37.658;2023-05-10T10:05:31;3.45;;;1.70;;
75139;SDS011;63714;55.812;37.658;2023-05-10T10:08:04;5.05;;;1.95;;
75139;SDS011;63714;55.812;37.658;2023-05-10T10:10:30;4.45;;;1.60;;
75139;SDS011;63714;55.812;37.658;2023-05-10T10:12:57;2.35;;;1.10;;
75139;SDS011;63714;55.812;37.658;2023-05-10T10:15:23;3.15;;;1.25;;
75139;SDS011;63714;55.812;37.658;2023-05-10T10:17:50;3.38;;;2.20;;
75139;SDS011;63714;55.812;37.658;2023-05-10T10:20:17;6.18;;;2.00;;
75139;SDS011;63714;55.812;37.658;2023-05-10T10:22:44;3.95;;;1.55;;
75139;SDS011;63714;55.812;37.658;2023-05-10T10:25:11;1.80;;;1.42;;
75139;SDS011;63714;55.812;37.658;2023-05-10T10:27:49;2.00;;;1.33;;
75139;SDS011;63714;55.812;37.658;2023-05-10T10:35:41;3.00;;;1.55;;
75139;SDS011;63714;55.812;37.658;2023-05-10T10:38:08;2.40;;;1.10;;
75139;SDS011;63714;55.812;37.658;2023-05-10T10:40:34;5.07;;;1.10;;
75139;SDS011;63714;55.812;37.658;2023-05-10T10:43:33;5.00;;;1.50;;
75139;SDS011;63714;55.812;37.658;2023-05-10T10:46:12;5.97;;;1.17;;
75139;SDS011;63714;55.812;37.658;2023-05-10T10:51:40;3.28;;;1.60;;
75139;SDS011;63714;55.812;37.658;2023-05-10T10:54:28;2.22;;;1.15;;
75139;SDS011;63714;55.812;37.658;2023-05-10T10:57:12;3.92;;;1.42;;
75139;SDS011;63714;55.812;37.658;2023-05-10T10:59:43;1.90;;;1.17;;
75139;SDS011;63714;55.812;37.658;2023-05-10T11:02:09;3.88;;;1.45;;
75139;SDS011;63714;55.812;37.658;2023-05-10T11:04:42;2.38;;;1.02;;
75139;SDS011;63714;55.812;37.658;2023-05-10T11:07:18;3.10;;;1.13;;
75139;SDS011;63714;55.812;37.658;2023-05-10T11:12:11;7.82;;;1.40;;
75139;SDS011;63714;55.812;37.658;2023-05-10T11:14:37;2.22;;;1.45;;
75139;SDS011;63714;55.812;37.658;2023-05-10T11:17:21;7.25;;;3.22;;
75139;SDS011;63714;55.812;37.658;2023-05-10T11:22:50;2.65;;;1.35;;
75139;SDS011;63714;55.812;37.658;2023-05-10T11:25:20;5.82;;;1.75;;
75139;SDS011;63714;55.812;37.658;2023-05-10T11:27:51;3.63;;;1.27;;
75139;SDS011;63714;55.812;37.658;2023-05-10T11:30:17;5.63;;;1.60;;
75139;SDS011;63714;55.812;37.658;2023-05-10T11:32:43;8.77;;;2.17;;
75139;SDS011;63714;55.812;37.658;2023-05-10T11:35:10;5.30;;;1.77;;
75139;SDS011;63714;55.812;37.658;2023-05-10T11:37:37;10.40;;;2.60;;
75139;SDS011;63714;55.812;37.658;2023-05-10T11:40:08;3.92;;;1.58;;
75139;SDS011;63714;55.812;37.658;2023-05-10T11:42:38;2.10;;;1.50;;
75139;SDS011;63714;55.812;37.658;2023-05-10T11:45:04;4.45;;;1.30;;
75139;SDS011;63714;55.812;37.658;2023-05-10T11:47:31;8.57;;;5.55;;
75139;SDS011;63714;55.812;37.658;2023-05-10T11:49:57;7.85;;;1.88;;
75139;SDS011;63714;55.812;37.658;2023-05-10T11:52:23;4.97;;;1.42;;
75139;SDS011;63714;55.812;37.658;2023-05-10T11:54:52;2.33;;;1.33;;
75139;SDS011;63714;55.812;37.658;2023-05-10T11:57:19;2.92;;;1.30;;
75139;SDS011;63714;55.812;37.658;2023-05-10T11:59:52;4.40;;;1.40;;
75139;SDS011;63714;55.812;37.658;2023-05-10T12:02:19;3.83;;;1.55;;
75139;SDS011;63714;55.812;37.658;2023-05-10T12:04:45;5.85;;;1.80;;
75139;SDS011;63714;55.812;37.658;2023-05-10T12:07:11;4.15;;;1.65;;
75139;SDS011;63714;55.812;37.658;2023-05-10T12:09:41;2.90;;;1.65;;
75139;SDS011;63714;55.812;37.658;2023-05-10T12:12:27;3.53;;;1.20;;
75139;SDS011;63714;55.812;37.658;2023-05-10T12:14:52;4.90;;;1.50;;
75139;SDS011;63714;55.812;37.658;2023-05-10T12:17:18;1.85;;;1.05;;
75139;SDS011;63714;55.812;37.658;2023-05-10T12:19:44;2.65;;;1.40;;
75139;SDS011;63714;55.812;37.658;2023-05-10T12:22:09;6.70;;;1.52;;
75139;SDS011;63714;55.812;37.658;2023-05-10T12:24:36;5.75;;;1.50;;
75139;SDS011;63714;55.812;37.658;2023-05-10T12:27:07;2.65;;;1.63;;
75139;SDS011;63714;55.812;37.658;2023-05-10T12:29:33;4.15;;;1.30;;
75139;SDS011;63714;55.812;37.658;2023-05-10T12:31:59;4.90;;;2.50;;
75139;SDS011;63714;55.812;37.658;2023-05-10T12:34:32;3.47;;;1.67;;
75139;SDS011;63714;55.812;37.658;2023-05-10T12:37:04;4.32;;;1.40;;
75139;SDS011;63714;55.812;37.658;2023-05-10T12:39:39;4.35;;;1.40;;
75139;SDS011;63714;55.812;37.658;2023-05-10T12:42:09;4.30;;;1.60;;
75139;SDS011;63714;55.812;37.658;2023-05-10T12:44:35;6.65;;;1.83;;
75139;SDS011;63714;55.812;37.658;2023-05-10T12:47:01;2.88;;;1.45;;
75139;SDS011;63714;55.812;37.658;2023-05-10T12:49:27;3.63;;;1.75;;
75139;SDS011;63714;55.812;37.658;2023-05-10T12:51:52;6.57;;;3.58;;
75139;SDS011;63714;55.812;37.658;2023-05-10T12:54:18;4.30;;;1.30;;
75139;SDS011;63714;55.812;37.658;2023-05-10T12:56:43;2.30;;;1.35;;
75139;SDS011;63714;55.812;37.658;2023-05-10T12:59:09;2.22;;;1.40;;
75139;SDS011;63714;55.812;37.658;2023-05-10T13:01:34;2.40;;;1.50;;
75139;SDS011;63714;55.812;37.658;2023-05-10T13:04:00;3.35;;;1.27;;
75139;SDS011;63714;55.812;37.658;2023-05-10T13:06:26;3.03;;;1.52;;
75139;SDS011;63714;55.812;37.658;2023-05-10T13:08:51;8.43;;;2.15;;
75139;SDS011;63714;55.812;37.658;2023-05-10T13:11:17;3.40;;;1.60;;
75139;SDS011;63714;55.812;37.658;2023-05-10T13:16:10;2.95;;;1.90;;
75139;SDS011;63714;55.812;37.658;2023-05-10T13:18:35;5.90;;;1.83;;
75139;SDS011;63714;55.812;37.658;2023-05-10T13:21:01;3.38;;;1.45;;
75139;SDS011;63714;55.812;37.658;2023-05-10T13:25:54;4.88;;;1.63;;
75139;SDS011;63714;55.812;37.658;2023-05-10T13:28:19;4.05;;;1.33;;
75139;SDS011;63714;55.812;37.658;2023-05-10T13:30:45;4.97;;;2.35;;
75139;SDS011;63714;55.812;37.658;2023-05-10T13:33:11;7.40;;;3.17;;
75139;SDS011;63714;55.812;37.658;2023-05-10T13:35:36;5.70;;;2.38;;
75139;SDS011;63714;55.812;37.658;2023-05-10T13:38:02;2.50;;;1.67;;
75139;SDS011;63714;55.812;37.658;2023-05-10T13:40:27;3.00;;;1.52;;
75139;SDS011;63714;55.812;37.658;2023-05-10T13:42:53;5.35;;;1.30;;
75139;SDS011;63714;55.812;37.658;2023-05-10T13:45:19;4.07;;;2.40;;
75139;SDS011;63714;55.812;37.658;2023-05-10T13:47:44;2.70;;;1.42;;
75139;SDS011;63714;55.812;37.658;2023-05-10T13:50:10;5.05;;;1.48;;
75139;SDS011;63714;55.812;37.658;2023-05-10T13:52:35;4.65;;;1.48;;
75139;SDS011;63714;55.812;37.658;2023-05-10T13:55:01;3.45;;;1.50;;
75139;SDS011;63714;55.812;37.658;2023-05-10T13:57:30;4.63;;;1.38;;
75139;SDS011;63714;55.812;37.658;2023-05-10T13:59:55;4.90;;;1.42;;
75139;SDS011;63714;55.812;37.658;2023-05-10T14:02:22;2.88;;;1.52;;
75139;SDS011;63714;55.812;37.658;2023-05-10T14:04:48;4.13;;;1.90;;
75139;SDS011;63714;55.812;37.658;2023-05-10T14:07:13;6.15;;;1.58;;
75139;SDS011;63714;55.812;37.658;2023-05-10T14:09:39;4.03;;;1.75;;
75139;SDS011;63714;55.812;37.658;2023-05-10T14:12:05;4.53;;;1.10;;
75139;SDS011;63714;55.812;37.658;2023-05-10T14:14:30;5.10;;;1.65;;
75139;SDS011;63714;55.812;37.658;2023-05-10T14:16:56;4.85;;;2.22;;
75139;SDS011;63714;55.812;37.658;2023-05-10T14:19:21;5.95;;;1.63;;
75139;SDS011;63714;55.812;37.658;2023-05-10T14:21:47;11.95;;;4.43;;
75139;SDS011;63714;55.812;37.658;2023-05-10T14:24:13;5.80;;;1.33;;
75139;SDS011;63714;55.812;37.658;2023-05-10T14:26:38;3.70;;;1.40;;
75139;SDS011;63714;55.812;37.658;2023-05-10T14:29:04;4.90;;;2.72;;
75139;SDS011;63714;55.812;37.658;2023-05-10T14:31:30;9.63;;;1.80;;
75139;SDS011;63714;55.812;37.658;2023-05-10T14:33:55;4.13;;;1.50;;
75139;SDS011;63714;55.812;37.658;2023-05-10T14:36:22;6.30;;;1.90;;
75139;SDS011;63714;55.812;37.658;2023-05-10T14:38:48;4.50;;;1.48;;
75139;SDS011;63714;55.812;37.658;2023-05-10T14:41:15;4.50;;;1.30;;
75139;SDS011;63714;55.812;37.658;2023-05-10T14:43:42;4.70;;;1.30;;
75139;SDS011;63714;55.812;37.658;2023-05-10T14:46:08;2.00;;;1.23;;
75139;SDS011;63714;55.812;37.658;2023-05-10T14:48:34;4.25;;;1.52;;
75139;SDS011;63714;55.812;37.658;2023-05-10T14:51:00;7.63;;;3.20;;
75139;SDS011;63714;55.812;37.658;2023-05-10T14:53:25;7.15;;;1.60;;
75139;SDS011;63714;55.812;37.658;2023-05-10T14:55:51;4.43;;;1.73;;
75139;SDS011;63714;55.812;37.658;2023-05-10T14:58:17;4.97;;;1.50;;
75139;SDS011;63714;55.812;37.658;2023-05-10T15:00:43;4.90;;;1.63;;
75139;SDS011;63714;55.812;37.658;2023-05-10T15:03:09;7.15;;;1.70;;
75139;SDS011;63714;55.812;37.658;2023-05-10T15:05:34;5.28;;;1.73;;
75139;SDS011;63714;55.812;37.658;2023-05-10T15:08:02;4.90;;;1.30;;
75139;SDS011;63714;55.812;37.658;2023-05-10T15:10:28;4.10;;;1.77;;
75139;SDS011;63714;55.812;37.658;2023-05-10T15:12:53;6.50;;;1.83;;
75139;SDS011;63714;55.812;37.658;2023-05-10T15:15:19;5.72;;;2.08;;
75139;SDS011;63714;55.812;37.658;2023-05-10T15:17:45;5.15;;;1.60;;
75139;SDS011;63714;55.812;37.658;2023-05-10T15:20:11;5.35;;;1.88;;
75139;SDS011;63714;55.812;37.658;2023-05-10T15:22:37;5.50;;;1.67;;
75139;SDS011;63714;55.812;37.658;2023-05-10T15:25:03;4.25;;;1.30;;